Time;durP1;ratioP1;P1;durP2;ratioP2;P2;SDS_P1;SDS_P2;PMS_P1;PMS_P2;Temp;Humidity;BMP_temperature;BMP_pressure;BME280_temperature;BME280_humidity;BME280_pressure;Samples;Min_cycle;Max_cycle;Signal;HPM_P1;HPM_P2
2021/08/23 00:02:18;;;;;;;3.37;3.07;;;19.40;99.90;;;;;;5056954;28;20239;-79
2021/08/23 00:04:44;;;;;;;5.33;3.70;;;19.30;99.90;;;;;;5057808;28;20195;-79
2021/08/23 00:07:10;;;;;;;4.33;3.90;;;19.30;99.90;;;;;;5024495;28;20183;-79
2021/08/23 00:09:35;;;;;;;3.70;3.40;;;19.20;99.90;;;;;;5074266;28;20207;-79
2021/08/23 00:12:01;;;;;;;6.90;4.27;;;19.20;99.90;;;;;;5073738;28;20559;-79
2021/08/23 00:14:27;;;;;;;5.80;3.80;;;19.20;99.90;;;;;;5073508;28;20230;-79
2021/08/23 00:16:53;;;;;;;4.80;4.40;;;19.20;99.90;;;;;;5073433;28;20589;-79
2021/08/23 00:19:22;;;;;;;5.13;3.93;;;19.20;99.90;;;;;;5056514;28;21274;-79
2021/08/23 00:21:50;;;;;;;4.27;3.97;;;19.20;99.90;;;;;;5076930;28;20523;-79
2021/08/23 00:24:22;;;;;;;5.23;4.20;;;19.20;99.90;;;;;;5074550;28;21028;-79
2021/08/23 00:26:53;;;;;;;4.13;3.83;;;19.10;99.90;;;;;;5040951;28;20960;-79
2021/08/23 00:29:20;;;;;;;5.00;4.53;;;19.10;99.90;;;;;;5057899;28;20690;-79
2021/08/23 00:31:46;;;;;;;5.20;4.77;;;19.10;99.90;;;;;;5042354;28;20622;-79
2021/08/23 00:34:12;;;;;;;4.90;4.40;;;19.00;99.90;;;;;;5075943;28;20559;-79
2021/08/23 00:36:39;;;;;;;5.07;4.33;;;19.00;99.90;;;;;;5057774;28;20559;-79
2021/08/23 00:39:07;;;;;;;4.70;3.67;;;19.00;99.90;;;;;;5056623;28;20598;-80
2021/08/23 00:41:37;;;;;;;5.60;4.27;;;19.00;99.90;;;;;;5055280;28;20569;-79
2021/08/23 00:44:05;;;;;;;5.53;4.87;;;19.10;99.90;;;;;;5055159;28;20571;-79
2021/08/23 00:46:31;;;;;;;4.97;4.27;;;19.10;99.90;;;;;;5072204;28;21027;-79
2021/08/23 00:48:57;;;;;;;5.73;5.13;;;19.10;99.90;;;;;;5072599;28;20649;-80
2021/08/23 00:51:23;;;;;;;5.40;4.63;;;19.10;99.90;;;;;;5072651;28;20618;-79
2021/08/23 00:53:49;;;;;;;5.20;4.70;;;19.10;99.90;;;;;;5038720;28;21203;-77
2021/08/23 00:56:19;;;;;;;5.70;4.07;;;19.10;99.90;;;;;;5055350;28;20725;-77
2021/08/23 00:58:46;;;;;;;5.00;4.60;;;19.10;99.90;;;;;;5074587;28;20607;-77
2021/08/23 01:01:21;;;;;;;6.20;3.90;;;19.10;99.90;;;;;;5072663;28;20636;-77
2021/08/23 01:03:53;;;;;;;5.80;4.30;;;19.10;99.90;;;;;;5054648;28;20948;-76
2021/08/23 01:06:19;;;;;;;4.97;4.40;;;19.10;99.90;;;;;;5072033;28;20566;-76
2021/08/23 01:08:47;;;;;;;5.27;4.73;;;19.00;99.90;;;;;;5072323;28;20599;-77
2021/08/23 01:11:17;;;;;;;5.10;4.07;;;19.00;99.90;;;;;;5072131;28;20620;-76
2021/08/23 01:13:48;;;;;;;3.87;3.50;;;19.00;99.90;;;;;;5054620;28;20593;-76
2021/08/23 01:16:14;;;;;;;3.80;3.50;;;19.00;99.90;;;;;;5072110;28;20555;-76
2021/08/23 01:18:42;;;;;;;4.40;4.03;;;19.00;99.90;;;;;;5054175;28;20602;-77
2021/08/23 01:21:11;;;;;;;6.70;4.20;;;19.00;99.90;;;;;;5054322;28;20567;-77
2021/08/23 01:23:43;;;;;;;4.40;4.00;;;18.90;99.90;;;;;;5073955;28;20577;-78
2021/08/23 01:26:10;;;;;;;6.30;4.43;;;18.90;99.90;;;;;;5084348;28;20698;-78
2021/08/23 01:28:50;;;;;;;5.30;4.80;;;18.90;99.90;;;;;;5080888;28;21058;-79
2021/08/23 01:31:30;;;;;;;4.30;3.90;;;18.90;99.90;;;;;;5075020;28;20626;-79
2021/08/23 01:33:56;;;;;;;4.37;4.07;;;18.90;99.90;;;;;;5077065;28;20566;-80
2021/08/23 01:36:22;;;;;;;7.33;4.63;;;18.90;99.90;;;;;;5075583;28;20939;-79
2021/08/23 01:38:47;;;;;;;4.60;4.20;;;18.90;99.90;;;;;;5076064;28;20605;-79
2021/08/23 01:41:13;;;;;;;4.60;4.20;;;18.90;99.90;;;;;;5075971;28;20594;-79
2021/08/23 01:43:39;;;;;;;4.07;3.70;;;18.90;99.90;;;;;;5076724;28;20164;-79
2021/08/23 01:46:05;;;;;;;4.70;4.00;;;18.90;99.90;;;;;;5078504;28;20704;-79
2021/08/23 01:48:32;;;;;;;4.43;4.10;;;18.90;99.90;;;;;;5071249;28;20281;-80
2021/08/23 01:50:57;;;;;;;6.83;4.67;;;18.80;99.90;;;;;;5070582;28;20642;-78
2021/08/23 01:53:23;;;;;;;4.30;3.90;;;18.80;99.90;;;;;;5075630;28;20583;-81
2021/08/23 01:55:50;;;;;;;5.40;4.07;;;18.80;99.90;;;;;;5077242;28;20786;-78
2021/08/23 01:58:16;;;;;;;6.00;4.20;;;18.80;99.90;;;;;;5058015;28;20204;-78
2021/08/23 02:00:42;;;;;;;5.27;4.50;;;18.70;99.90;;;;;;5064927;28;20594;-78
2021/08/23 02:03:08;;;;;;;4.60;4.20;;;18.70;99.90;;;;;;5086589;28;20563;-80
2021/08/23 02:05:33;;;;;;;6.17;5.67;;;18.70;99.90;;;;;;5058893;28;20559;-80
2021/08/23 02:07:59;;;;;;;4.60;4.20;;;18.70;99.90;;;;;;5076010;28;20644;-80
2021/08/23 02:10:26;;;;;;;6.77;5.20;;;18.60;99.90;;;;;;5077869;28;20192;-80
2021/08/23 02:12:52;;;;;;;5.67;4.83;;;18.50;99.90;;;;;;5057938;28;21022;-80
2021/08/23 02:15:18;;;;;;;5.00;4.47;;;18.60;99.90;;;;;;5079574;28;20944;-80
2021/08/23 02:17:44;;;;;;;6.13;5.63;;;18.50;99.90;;;;;;5086087;28;20621;-80
2021/08/23 02:20:11;;;;;;;5.73;4.73;;;18.50;99.90;;;;;;5070834;28;20191;-80
2021/08/23 02:22:37;;;;;;;5.00;4.50;;;18.50;99.90;;;;;;5087456;28;20243;-80
2021/08/23 02:25:07;;;;;;;4.60;4.13;;;18.50;99.90;;;;;;5049627;28;20584;-80
2021/08/23 02:27:33;;;;;;;6.43;5.20;;;18.50;99.90;;;;;;5080065;28;20611;-80
2021/08/23 02:29:59;;;;;;;5.83;4.20;;;18.40;99.90;;;;;;5054443;28;20969;-80
2021/08/23 02:32:25;;;;;;;4.80;4.40;;;18.40;99.90;;;;;;5075806;28;20628;-79
2021/08/23 02:34:51;;;;;;;5.13;4.63;;;18.40;99.90;;;;;;5083484;28;20586;-80
2021/08/23 02:37:17;;;;;;;4.43;4.07;;;18.40;99.90;;;;;;5060799;28;20168;-79
2021/08/23 02:39:42;;;;;;;5.27;4.87;;;18.40;99.90;;;;;;5076860;28;20211;-79
2021/08/23 02:42:08;;;;;;;5.30;4.80;;;18.40;99.90;;;;;;5074294;28;20196;-79
2021/08/23 02:44:34;;;;;;;4.67;4.27;;;18.40;99.90;;;;;;5075082;28;20164;-80
2021/08/23 02:46:59;;;;;;;6.63;6.03;;;18.40;99.90;;;;;;5082956;28;20191;-79
2021/08/23 02:49:26;;;;;;;7.10;6.40;;;18.40;99.90;;;;;;5073304;28;20572;-79
2021/08/23 02:51:53;;;;;;;6.27;5.77;;;18.50;99.90;;;;;;5071565;28;20192;-78
2021/08/23 02:54:20;;;;;;;6.17;5.60;;;18.50;99.90;;;;;;5071707;28;21106;-79
2021/08/23 02:56:46;;;;;;;5.87;5.37;;;18.50;99.90;;;;;;5055394;28;20586;-80
2021/08/23 02:59:12;;;;;;;6.53;6.03;;;18.50;99.90;;;;;;5058135;28;20718;-80
2021/08/23 03:01:37;;;;;;;6.87;6.27;;;18.50;99.90;;;;;;5075385;28;20594;-80
2021/08/23 03:04:03;;;;;;;7.70;7.10;;;18.50;99.90;;;;;;5056673;28;20173;-80
2021/08/23 03:06:29;;;;;;;6.87;6.20;;;18.50;99.90;;;;;;5054659;28;20196;-80
2021/08/23 03:08:55;;;;;;;6.50;5.87;;;18.50;99.90;;;;;;5071995;28;20591;-80
2021/08/23 03:11:22;;;;;;;7.57;6.87;;;18.50;99.90;;;;;;5075175;28;20614;-79
2021/08/23 03:13:47;;;;;;;6.70;6.10;;;18.60;99.90;;;;;;5075284;28;20195;-79
2021/08/23 03:16:13;;;;;;;7.23;6.63;;;18.60;99.90;;;;;;5067154;28;20575;-79
2021/08/23 03:18:39;;;;;;;6.90;6.30;;;18.60;99.90;;;;;;5081261;28;20199;-79
2021/08/23 03:21:05;;;;;;;8.20;5.70;;;18.60;99.90;;;;;;5097011;28;20175;-79
2021/08/23 03:23:31;;;;;;;6.83;6.13;;;18.60;99.90;;;;;;5087347;28;20591;-79
2021/08/23 03:26:00;;;;;;;6.97;6.30;;;18.60;99.90;;;;;;5080657;28;20597;-80
2021/08/23 03:28:26;;;;;;;7.77;6.87;;;18.60;99.90;;;;;;5096598;28;21223;-79
2021/08/23 03:30:52;;;;;;;6.33;5.77;;;18.60;99.90;;;;;;5094581;28;20614;-79
2021/08/23 03:33:18;;;;;;;7.23;6.73;;;18.60;99.90;;;;;;5096005;28;20562;-79
2021/08/23 03:35:44;;;;;;;6.70;6.10;;;18.60;99.90;;;;;;5078060;28;20177;-79
2021/08/23 03:38:10;;;;;;;6.60;6.00;;;18.60;99.90;;;;;;5093529;28;20211;-78
2021/08/23 03:40:36;;;;;;;6.60;5.90;;;18.60;99.90;;;;;;5069405;28;20616;-79
2021/08/23 03:43:02;;;;;;;9.80;6.97;;;18.50;99.90;;;;;;5079415;28;21142;-78
2021/08/23 03:45:27;;;;;;;7.03;6.50;;;18.50;99.90;;;;;;5079267;28;20264;-78
2021/08/23 03:47:53;;;;;;;6.73;6.13;;;18.50;99.90;;;;;;5095941;28;20195;-78
2021/08/23 03:50:19;;;;;;;6.23;5.63;;;18.50;99.90;;;;;;5073979;28;20230;-79
2021/08/23 03:52:44;;;;;;;6.53;5.97;;;18.50;99.90;;;;;;5097443;28;20184;-79
2021/08/23 03:55:10;;;;;;;6.73;6.13;;;18.50;99.90;;;;;;5080268;28;20160;-79
2021/08/23 03:57:37;;;;;;;6.30;5.70;;;18.50;99.90;;;;;;5094415;28;20169;-80
2021/08/23 04:00:05;;;;;;;6.43;5.83;;;18.50;99.90;;;;;;5087642;28;20610;-79
2021/08/23 04:02:33;;;;;;;5.87;5.37;;;18.50;99.90;;;;;;5097267;28;20577;-78
2021/08/23 04:04:59;;;;;;;7.73;7.00;;;18.50;99.90;;;;;;5080129;28;20593;-79
2021/08/23 04:07:25;;;;;;;6.83;6.00;;;18.50;99.90;;;;;;5099443;28;20686;-80
2021/08/23 04:09:51;;;;;;;6.90;6.30;;;18.60;99.90;;;;;;5098344;28;20602;-79
2021/08/23 04:12:16;;;;;;;6.90;6.20;;;18.60;99.90;;;;;;5099854;28;20617;-80
2021/08/23 04:14:42;;;;;;;7.10;6.50;;;18.60;99.90;;;;;;5099713;28;20191;-79
2021/08/23 04:17:08;;;;;;;7.00;6.40;;;18.60;99.90;;;;;;5098867;28;20181;-79
2021/08/23 04:19:34;;;;;;;7.20;6.50;;;18.60;99.90;;;;;;5099277;28;20200;-80
2021/08/23 04:21:59;;;;;;;9.43;6.40;;;18.60;99.90;;;;;;5080859;28;20174;-79
2021/08/23 04:24:26;;;;;;;8.00;7.17;;;18.60;99.90;;;;;;5094803;28;20606;-79
2021/08/23 04:26:51;;;;;;;8.07;7.23;;;18.60;99.90;;;;;;5096286;28;20172;-80
2021/08/23 04:29:17;;;;;;;7.50;6.90;;;18.60;99.90;;;;;;5090684;28;20630;-79
2021/08/23 04:31:44;;;;;;;7.33;6.03;;;18.60;99.90;;;;;;5071396;28;20208;-79
2021/08/23 04:34:10;;;;;;;8.40;6.20;;;18.70;99.90;;;;;;5094170;28;20589;-79
2021/08/23 04:36:36;;;;;;;8.03;7.23;;;18.70;99.90;;;;;;5078270;28;20567;-79
2021/08/23 04:39:04;;;;;;;6.40;5.53;;;18.80;99.90;;;;;;5068182;28;20641;-79
2021/08/23 04:41:35;;;;;;;7.90;7.10;;;18.80;99.90;;;;;;5077042;28;20575;-79
2021/08/23 04:44:01;;;;;;;7.20;6.47;;;18.90;99.90;;;;;;5066679;28;20571;-80
2021/08/23 04:46:27;;;;;;;6.90;6.37;;;18.90;99.90;;;;;;5045383;28;20604;-80
2021/08/23 04:48:53;;;;;;;8.27;6.83;;;19.00;99.90;;;;;;5065746;28;20544;-80
2021/08/23 04:51:18;;;;;;;6.80;6.13;;;19.10;99.90;;;;;;5082896;28;20676;-80
2021/08/23 04:53:44;;;;;;;7.30;6.57;;;19.10;99.90;;;;;;5085690;28;20243;-80
2021/08/23 04:56:10;;;;;;;7.83;7.17;;;19.20;99.90;;;;;;5061320;28;20175;-80
2021/08/23 04:58:36;;;;;;;8.47;7.70;;;19.30;99.90;;;;;;5062614;28;20201;-80
2021/08/23 05:01:02;;;;;;;7.53;6.83;;;19.30;99.90;;;;;;5088941;28;20562;-79
2021/08/23 05:03:28;;;;;;;8.30;7.50;;;19.30;99.90;;;;;;5097557;28;20602;-80
2021/08/23 05:05:54;;;;;;;8.67;7.77;;;19.30;99.90;;;;;;5093512;28;20181;-80
2021/08/23 05:08:19;;;;;;;8.13;7.43;;;19.30;99.90;;;;;;5060452;28;20549;-81
2021/08/23 05:10:45;;;;;;;8.87;8.07;;;19.30;99.90;;;;;;5071989;28;20207;-81
2021/08/23 05:13:11;;;;;;;7.70;7.00;;;19.30;99.90;;;;;;5072491;28;20172;-80
2021/08/23 05:15:37;;;;;;;9.67;8.03;;;19.30;99.90;;;;;;5060571;28;21122;-80
2021/08/23 05:18:03;;;;;;;8.10;7.30;;;19.40;99.90;;;;;;5069719;28;20191;-81
2021/08/23 05:20:28;;;;;;;8.60;7.30;;;19.30;99.90;;;;;;5028689;28;20558;-81
2021/08/23 05:22:55;;;;;;;7.50;7.00;;;19.40;99.90;;;;;;5037433;28;20168;-81
2021/08/23 05:25:21;;;;;;;7.20;6.50;;;19.40;99.90;;;;;;5046272;28;20587;-81
2021/08/23 05:27:47;;;;;;;8.30;7.50;;;19.40;99.90;;;;;;5057774;28;20558;-81
2021/08/23 05:30:13;;;;;;;8.67;7.53;;;19.50;99.90;;;;;;5071909;28;20274;-81
2021/08/23 05:32:39;;;;;;;11.00;7.30;;;19.50;99.90;;;;;;5065130;28;20625;-81
2021/08/23 05:35:06;;;;;;;6.20;5.70;;;19.50;99.90;;;;;;5071195;28;20628;-79
2021/08/23 05:37:32;;;;;;;7.80;7.00;;;19.60;99.90;;;;;;5071242;28;20978;-79
2021/08/23 05:39:58;;;;;;;8.00;7.30;;;19.70;99.90;;;;;;5053887;28;20578;-79
2021/08/23 05:42:24;;;;;;;8.30;7.50;;;19.80;99.90;;;;;;5037241;28;20168;-79
2021/08/23 05:44:53;;;;;;;7.20;6.60;;;19.90;99.90;;;;;;5052154;28;20589;-79
2021/08/23 05:47:20;;;;;;;9.23;8.40;;;19.90;99.90;;;;;;5033854;28;20209;-80
2021/08/23 05:49:46;;;;;;;10.43;7.60;;;20.00;99.90;;;;;;5051426;28;20642;-79
2021/08/23 05:52:12;;;;;;;9.00;8.20;;;20.10;99.90;;;;;;5037737;28;20984;-79
2021/08/23 05:54:39;;;;;;;8.63;7.83;;;20.20;99.90;;;;;;5033305;28;20165;-79
2021/08/23 05:57:07;;;;;;;8.50;7.80;;;20.30;99.90;;;;;;5051390;28;20195;-79
2021/08/23 05:59:33;;;;;;;7.77;7.07;;;20.40;99.90;;;;;;5050951;28;20587;-79
2021/08/23 06:01:59;;;;;;;9.37;7.30;;;20.50;99.90;;;;;;5051370;28;20606;-79
2021/08/23 06:04:25;;;;;;;8.70;7.83;;;20.60;99.90;;;;;;5032630;28;21145;-80
2021/08/23 06:06:52;;;;;;;8.50;7.70;;;20.70;99.90;;;;;;5054804;28;21064;-79
2021/08/23 06:09:19;;;;;;;7.23;6.57;;;20.70;99.90;;;;;;5051643;28;20686;-79
2021/08/23 06:11:45;;;;;;;7.40;6.80;;;20.80;99.90;;;;;;5051100;28;20952;-80
2021/08/23 06:14:11;;;;;;;7.00;6.40;;;20.90;99.90;;;;;;5033785;28;20591;-79
2021/08/23 06:16:37;;;;;;;9.93;8.70;;;21.00;99.90;;;;;;5051161;28;20572;-79
2021/08/23 06:19:04;;;;;;;12.93;11.70;;;21.00;99.90;;;;;;5051485;28;20302;-80
2021/08/23 06:21:29;;;;;;;11.93;8.43;;;21.10;99.90;;;;;;5051191;28;20563;-79
2021/08/23 06:23:55;;;;;;;9.00;8.30;;;21.10;99.90;;;;;;5017301;28;21146;-78
2021/08/23 06:26:21;;;;;;;20.73;9.30;;;21.20;99.90;;;;;;5052192;28;20169;-78
2021/08/23 06:28:47;;;;;;;8.37;7.57;;;21.30;99.90;;;;;;5055323;28;20710;-78
2021/08/23 06:31:13;;;;;;;8.00;7.30;;;21.50;99.90;;;;;;5051228;28;20626;-78
2021/08/23 06:33:38;;;;;;;9.53;8.63;;;21.60;99.90;;;;;;5050972;28;20176;-78
2021/08/23 06:36:05;;;;;;;7.57;6.87;;;21.60;99.90;;;;;;5050811;28;20563;-78
2021/08/23 06:38:30;;;;;;;9.27;8.40;;;21.80;99.90;;;;;;5050954;28;20649;-77
2021/08/23 06:40:56;;;;;;;9.13;8.33;;;21.80;99.90;;;;;;5016728;28;20251;-77
2021/08/23 06:43:22;;;;;;;9.60;8.80;;;21.80;99.90;;;;;;5050849;28;20564;-77
2021/08/23 06:45:48;;;;;;;8.83;8.00;;;21.80;99.90;;;;;;5054450;28;20200;-77
2021/08/23 06:48:14;;;;;;;8.80;8.10;;;21.90;99.90;;;;;;5036727;28;20193;-77
2021/08/23 06:50:40;;;;;;;9.17;8.40;;;21.90;99.90;;;;;;5054720;28;20621;-77
2021/08/23 06:53:06;;;;;;;9.37;8.60;;;21.90;99.90;;;;;;5030649;23;21117;-76
2021/08/23 06:55:33;;;;;;;10.60;9.60;;;21.90;99.90;;;;;;5053615;28;20615;-76
2021/08/23 06:58:00;;;;;;;8.87;7.97;;;21.90;99.90;;;;;;5036747;28;20255;-76
2021/08/23 07:00:27;;;;;;;8.97;8.17;;;22.00;99.90;;;;;;5014391;28;20644;-75
2021/08/23 07:02:52;;;;;;;9.03;8.30;;;22.00;99.90;;;;;;5053390;28;20702;-77
2021/08/23 07:05:19;;;;;;;8.80;8.00;;;22.00;99.90;;;;;;5037128;28;21181;-76
2021/08/23 07:07:45;;;;;;;8.23;7.50;;;22.00;99.90;;;;;;5037266;28;20214;-76
2021/08/23 07:10:12;;;;;;;8.17;7.50;;;22.10;99.90;;;;;;5020523;28;20630;-77
2021/08/23 07:12:39;;;;;;;9.03;8.13;;;22.10;99.90;;;;;;5057926;28;20165;-77
2021/08/23 07:15:05;;;;;;;7.70;7.10;;;22.20;99.90;;;;;;5054179;28;20560;-77
2021/08/23 07:17:32;;;;;;;8.50;7.80;;;22.20;99.90;;;;;;5053925;28;20560;-77
2021/08/23 07:19:58;;;;;;;10.80;9.90;;;22.20;99.90;;;;;;5036553;28;20982;-76
2021/08/23 07:22:24;;;;;;;10.07;9.07;;;22.30;99.90;;;;;;5036135;28;20682;-77
2021/08/23 07:24:51;;;;;;;8.80;7.97;;;22.40;99.90;;;;;;5035820;28;20181;-77
2021/08/23 07:27:16;;;;;;;10.60;8.60;;;22.40;99.90;;;;;;5002175;28;20587;-77
2021/08/23 07:29:42;;;;;;;8.23;7.53;;;22.40;99.90;;;;;;5016603;28;20572;-77
2021/08/23 07:32:08;;;;;;;9.23;8.43;;;22.40;99.90;;;;;;5033069;28;20170;-77
2021/08/23 07:34:34;;;;;;;9.93;7.57;;;22.40;99.90;;;;;;5034092;28;20185;-77
2021/08/23 07:37:00;;;;;;;9.57;8.50;;;22.40;99.90;;;;;;4999575;28;20576;-78
2021/08/23 07:39:26;;;;;;;10.37;9.37;;;22.40;99.90;;;;;;5016165;28;20660;-78
2021/08/23 07:41:52;;;;;;;8.97;8.27;;;22.50;99.90;;;;;;5032988;28;20980;-78
2021/08/23 07:44:18;;;;;;;7.80;7.20;;;22.40;99.90;;;;;;5015981;28;20197;-78
2021/08/23 07:46:44;;;;;;;7.80;7.10;;;22.50;99.90;;;;;;5016856;28;20165;-78
2021/08/23 07:49:10;;;;;;;8.90;8.10;;;22.50;99.90;;;;;;5039568;28;20571;-78
2021/08/23 07:51:36;;;;;;;9.23;8.40;;;22.50;99.90;;;;;;5024571;28;20195;-78
2021/08/23 07:54:02;;;;;;;7.97;7.30;;;22.50;99.90;;;;;;5034669;28;20208;-78
2021/08/23 07:56:29;;;;;;;9.47;8.60;;;22.60;99.90;;;;;;5036303;28;20260;-78
2021/08/23 07:58:56;;;;;;;8.67;8.00;;;22.60;99.90;;;;;;5039071;28;20578;-78
2021/08/23 08:01:23;;;;;;;9.07;8.27;;;22.70;99.90;;;;;;5068441;28;20567;-78
2021/08/23 08:03:49;;;;;;;10.50;9.60;;;22.70;99.90;;;;;;5019428;28;21021;-77
2021/08/23 08:06:16;;;;;;;9.67;8.83;;;22.80;99.90;;;;;;5035349;28;20613;-76
2021/08/23 08:08:42;;;;;;;9.63;8.83;;;22.90;99.90;;;;;;5066521;28;20176;-76
2021/08/23 08:11:08;;;;;;;10.10;9.03;;;23.00;99.90;;;;;;5054859;28;20618;-76
2021/08/23 08:13:34;;;;;;;10.17;9.27;;;23.00;99.90;;;;;;5055423;28;21109;-77
2021/08/23 08:16:00;;;;;;;8.93;8.10;;;23.10;99.90;;;;;;5038409;28;20570;-77
2021/08/23 08:18:26;;;;;;;10.80;9.80;;;23.20;99.90;;;;;;5055210;28;20171;-76
2021/08/23 08:20:52;;;;;;;11.30;10.30;;;23.20;99.90;;;;;;5038287;28;21104;-77
2021/08/23 08:23:17;;;;;;;10.17;9.27;;;23.30;99.90;;;;;;5055550;28;20235;-75
2021/08/23 08:25:43;;;;;;;9.90;8.93;;;23.40;99.90;;;;;;5026209;28;20181;-76
2021/08/23 08:28:10;;;;;;;9.37;8.60;;;23.60;99.90;;;;;;5015376;28;20201;-77
2021/08/23 08:30:36;;;;;;;11.67;10.53;;;23.80;99.90;;;;;;5031921;28;20202;-77
2021/08/23 08:33:02;;;;;;;9.90;9.03;;;23.80;99.90;;;;;;4999069;28;20596;-77
2021/08/23 08:35:27;;;;;;;9.67;8.13;;;23.90;99.90;;;;;;5040340;28;20165;-76
2021/08/23 08:37:54;;;;;;;9.93;8.93;;;23.90;99.90;;;;;;5034769;28;20177;-76
2021/08/23 08:40:20;;;;;;;10.53;9.40;;;24.00;99.90;;;;;;5034948;28;20586;-77
2021/08/23 08:42:46;;;;;;;9.50;8.57;;;24.00;99.90;;;;;;5053454;28;20193;-76
2021/08/23 08:45:13;;;;;;;10.80;8.87;;;24.00;99.90;;;;;;5037996;28;20575;-77
2021/08/23 08:47:43;;;;;;;9.97;9.00;;;24.00;99.90;;;;;;5019595;28;20571;-77
2021/08/23 08:50:15;;;;;;;10.00;7.80;;;23.90;99.90;;;;;;5052740;28;20614;-77
2021/08/23 08:52:43;;;;;;;9.87;8.57;;;23.90;99.90;;;;;;5034599;28;20590;-76
2021/08/23 08:55:09;;;;;;;10.87;8.20;;;23.90;99.90;;;;;;5034332;28;20578;-76
2021/08/23 08:57:36;;;;;;;9.40;7.47;;;23.90;99.90;;;;;;5018197;28;21060;-77
2021/08/23 09:00:04;;;;;;;8.70;7.90;;;23.90;99.90;;;;;;5034348;28;20587;-77
2021/08/23 09:02:30;;;;;;;8.67;7.90;;;24.00;99.90;;;;;;5005770;28;20623;-77
2021/08/23 09:04:56;;;;;;;8.57;7.77;;;24.00;99.90;;;;;;5017548;28;20954;-77
2021/08/23 09:07:21;;;;;;;10.00;8.90;;;24.10;99.90;;;;;;5034043;28;20571;-76
2021/08/23 09:09:50;;;;;;;8.60;7.80;;;24.20;99.90;;;;;;5032436;28;20640;-77
2021/08/23 09:12:16;;;;;;;8.13;7.43;;;24.20;99.90;;;;;;5033584;28;20180;-77
2021/08/23 09:14:54;;;;;;;7.70;7.10;;;24.20;99.90;;;;;;5033311;28;20608;-77
2021/08/23 09:17:25;;;;;;;7.17;6.57;;;24.20;99.90;;;;;;5029842;28;20169;-77
2021/08/23 09:20:05;;;;;;;8.47;7.67;;;24.10;99.90;;;;;;5015100;28;21154;-77
2021/08/23 09:22:31;;;;;;;7.97;7.30;;;24.00;99.90;;;;;;5031233;28;20699;-78
2021/08/23 09:25:10;;;;;;;8.80;8.10;;;23.90;99.90;;;;;;5033449;28;21234;-77
2021/08/23 09:27:37;;;;;;;8.07;7.40;;;23.80;99.90;;;;;;5029314;28;20237;-77
2021/08/23 09:30:05;;;;;;;9.20;8.40;;;23.60;99.90;;;;;;5033743;28;20686;-77
2021/08/23 09:32:33;;;;;;;8.70;8.00;;;23.50;99.90;;;;;;5031494;28;20642;-76
2021/08/23 09:35:00;;;;;;;8.73;7.87;;;23.40;99.90;;;;;;5017851;28;21246;-76
2021/08/23 09:37:31;;;;;;;8.40;7.67;;;23.40;99.90;;;;;;5053741;28;20584;-77
2021/08/23 09:40:11;;;;;;;9.33;8.53;;;23.40;99.90;;;;;;5052869;28;20623;-77
2021/08/23 09:42:37;;;;;;;7.07;6.50;;;23.40;99.90;;;;;;5047967;28;20629;-77
2021/08/23 09:45:14;;;;;;;7.70;7.07;;;23.50;99.90;;;;;;5000661;28;21190;-75
2021/08/23 09:47:40;;;;;;;8.33;7.63;;;23.40;99.90;;;;;;5013521;28;20576;-76
2021/08/23 09:50:16;;;;;;;7.70;7.10;;;23.40;99.90;;;;;;5028417;28;20637;-77
2021/08/23 09:52:45;;;;;;;8.80;8.00;;;23.20;99.90;;;;;;5017063;28;20193;-78
2021/08/23 09:55:12;;;;;;;9.10;8.20;;;23.10;99.90;;;;;;5017008;28;20567;-78
2021/08/23 09:57:41;;;;;;;6.90;6.10;;;22.90;99.90;;;;;;5033615;28;21049;-78
2021/08/23 10:00:11;;;;;;;7.13;5.37;;;22.80;99.90;;;;;;5066422;28;20578;-77
2021/08/23 10:02:45;;;;;;;6.07;5.53;;;22.70;99.90;;;;;;5055352;28;20576;-77
2021/08/23 10:05:21;;;;;;;6.70;6.10;;;22.80;99.90;;;;;;5032950;28;20682;-78
2021/08/23 10:07:50;;;;;;;6.77;6.27;;;22.90;99.90;;;;;;5033081;28;21185;-78
2021/08/23 10:10:18;;;;;;;7.00;6.30;;;23.00;99.90;;;;;;5033053;28;21106;-77
2021/08/23 10:12:44;;;;;;;6.93;6.33;;;23.20;99.90;;;;;;5000398;28;20998;-77
2021/08/23 10:15:10;;;;;;;7.53;6.83;;;23.20;99.90;;;;;;5037248;28;20611;-77
2021/08/23 10:17:37;;;;;;;8.03;7.33;;;23.20;99.90;;;;;;5051087;28;20642;-77
2021/08/23 10:20:08;;;;;;;8.17;7.47;;;23.40;99.90;;;;;;5005420;28;20572;-78
2021/08/23 10:22:36;;;;;;;10.20;9.30;;;23.50;99.90;;;;;;5039570;28;20559;-77
2021/08/23 10:25:02;;;;;;;9.37;8.37;;;24.00;99.90;;;;;;5023105;28;20552;-78
2021/08/23 10:27:32;;;;;;;9.17;8.30;;;24.70;99.90;;;;;;5057513;28;20718;-78
2021/08/23 10:29:58;;;;;;;8.67;7.80;;;25.50;99.90;;;;;;5038945;28;20568;-77
2021/08/23 10:32:34;;;;;;;8.60;7.90;;;26.30;99.90;;;;;;5057478;28;20582;-77
2021/08/23 10:35:16;;;;;;;8.93;8.13;;;27.20;99.90;;;;;;5039212;28;20178;-77
2021/08/23 10:37:43;;;;;;;6.93;6.33;;;28.20;99.90;;;;;;5022849;28;20582;-76
2021/08/23 10:40:10;;;;;;;5.90;5.40;;;29.00;99.90;;;;;;5030449;28;20617;-77
2021/08/23 10:42:41;;;;;;;6.17;5.70;;;29.70;99.90;;;;;;5020480;28;20619;-76
2021/08/23 10:45:12;;;;;;;8.33;7.57;;;30.20;99.90;;;;;;5041571;28;20962;-77
2021/08/23 10:47:38;;;;;;;6.20;5.70;;;30.60;99.90;;;;;;5022683;28;21151;-77
2021/08/23 10:50:06;;;;;;;6.70;6.20;;;31.00;99.90;;;;;;5038854;28;20930;-77
2021/08/23 10:52:36;;;;;;;5.73;5.20;;;31.30;99.90;;;;;;5043414;28;20663;-77
2021/08/23 10:55:07;;;;;;;5.57;5.17;;;31.60;99.90;;;;;;5005731;28;20584;-77
2021/08/23 10:57:33;;;;;;;4.17;3.87;;;31.90;99.90;;;;;;5039378;28;20563;-77
2021/08/23 11:00:11;;;;;;;4.07;3.70;;;32.20;99.90;;;;;;5056625;28;20570;-77
2021/08/23 11:02:38;;;;;;;4.20;3.80;;;32.20;99.90;;;;;;5039225;28;20163;-77
2021/08/23 11:05:07;;;;;;;4.03;3.73;;;32.10;99.90;;;;;;5021997;28;21158;-77
2021/08/23 11:07:35;;;;;;;4.57;4.17;;;31.90;99.90;;;;;;5038917;28;20567;-76
2021/08/23 11:10:09;;;;;;;4.83;4.43;;;31.50;99.90;;;;;;5022836;28;20559;-77
2021/08/23 11:12:47;;;;;;;4.00;3.70;;;31.00;99.90;;;;;;5057603;28;21141;-76
2021/08/23 11:15:25;;;;;;;4.37;4.03;;;30.40;99.90;;;;;;5057484;28;21093;-77
2021/08/23 11:18:12;;;;;;;4.97;4.20;;;29.90;99.90;;;;;;5039532;28;20995;-77
2021/08/23 11:20:42;;;;;;;4.83;4.33;;;29.50;99.90;;;;;;5038692;28;20589;-77
2021/08/23 11:23:13;;;;;;;4.57;4.27;;;29.20;99.90;;;;;;5022476;28;20633;-77
2021/08/23 11:25:51;;;;;;;5.20;4.70;;;29.00;99.90;;;;;;5039024;28;20577;-77
2021/08/23 11:28:21;;;;;;;5.40;4.90;;;28.80;99.90;;;;;;5061400;28;20580;-77
2021/08/23 11:30:54;;;;;;;4.90;4.60;;;28.70;99.90;;;;;;5055771;28;20634;-77
2021/08/23 11:33:27;;;;;;;5.80;5.30;;;28.60;99.90;;;;;;5053224;28;20607;-77
2021/08/23 11:35:54;;;;;;;4.80;4.40;;;28.40;99.90;;;;;;5035594;28;20647;-77
2021/08/23 11:38:37;;;;;;;4.80;4.43;;;28.20;99.90;;;;;;5035997;28;20572;-77
2021/08/23 11:41:06;;;;;;;5.50;5.10;;;28.00;99.90;;;;;;5035684;28;20770;-75
2021/08/23 11:43:34;;;;;;;5.77;5.37;;;27.70;99.90;;;;;;5053429;28;20595;-76
2021/08/23 11:46:01;;;;;;;7.00;6.50;;;27.50;99.90;;;;;;5053608;28;20555;-76
2021/08/23 11:48:27;;;;;;;5.27;4.77;;;27.20;99.90;;;;;;5053604;28;20609;-78
2021/08/23 11:50:53;;;;;;;5.53;5.13;;;27.10;99.90;;;;;;5053743;28;20630;-76
2021/08/23 11:53:23;;;;;;;6.53;6.07;;;26.90;99.90;;;;;;5053876;28;20977;-76
2021/08/23 11:55:50;;;;;;;5.50;5.10;;;26.80;99.90;;;;;;5034988;28;20698;-76
2021/08/23 11:58:20;;;;;;;6.50;6.00;;;26.80;99.90;;;;;;5073529;28;20625;-77
2021/08/23 12:01:14;;;;;;;6.43;6.00;;;26.70;99.90;;;;;;5053463;28;20599;-77
2021/08/23 12:03:40;;;;;;;6.47;5.97;;;26.60;99.90;;;;;;5064415;28;20622;-77
2021/08/23 12:06:11;;;;;;;6.10;5.60;;;26.70;99.90;;;;;;5062329;28;20579;-76
2021/08/23 12:08:40;;;;;;;6.50;6.00;;;26.80;99.90;;;;;;5056389;28;20570;-76
2021/08/23 12:11:12;;;;;;;6.57;5.60;;;26.90;99.90;;;;;;5054740;28;20627;-76
2021/08/23 12:13:40;;;;;;;5.87;5.47;;;27.00;99.90;;;;;;5055479;28;20618;-77
2021/08/23 12:16:14;;;;;;;5.37;4.97;;;27.00;99.90;;;;;;5038072;28;20610;-77
2021/08/23 12:18:49;;;;;;;5.40;5.10;;;27.10;99.90;;;;;;5059080;28;20613;-77
2021/08/23 12:21:26;;;;;;;6.30;5.70;;;27.10;99.90;;;;;;5034721;28;20628;-77
2021/08/23 12:24:01;;;;;;;6.20;5.80;;;27.00;99.90;;;;;;5053016;28;20602;-76
2021/08/23 12:26:38;;;;;;;5.87;5.37;;;27.00;99.90;;;;;;5034887;28;20563;-77
2021/08/23 12:29:10;;;;;;;5.73;5.30;;;27.00;99.90;;;;;;5037756;28;20581;-77
2021/08/23 12:31:38;;;;;;;5.60;5.10;;;27.00;99.90;;;;;;5064111;28;20618;-76
2021/08/23 12:34:14;;;;;;;7.63;6.93;;;27.00;99.90;;;;;;5052681;28;20600;-76
2021/08/23 12:36:44;;;;;;;5.90;5.40;;;26.90;99.90;;;;;;5034719;28;20571;-77
2021/08/23 12:39:10;;;;;;;6.67;6.17;;;26.80;99.90;;;;;;5034832;28;20575;-76
2021/08/23 12:41:39;;;;;;;7.17;6.60;;;26.70;99.90;;;;;;5054447;28;20560;-77
2021/08/23 12:44:05;;;;;;;6.63;6.00;;;26.60;99.90;;;;;;5054227;28;20619;-77
2021/08/23 12:46:31;;;;;;;6.73;6.23;;;26.60;99.90;;;;;;5052688;28;21111;-76
2021/08/23 12:48:56;;;;;;;6.73;6.00;;;26.50;99.90;;;;;;5052728;28;20568;-76